Time;durP1;ratioP1;P1;durP2;ratioP2;P2;SDS_P1;SDS_P2;PMS_P1;PMS_P2;Temp;Humidity;BMP_temperature;BMP_pressure;BME280_temperature;BME280_humidity;BME280_pressure;Samples;Min_cycle;Max_cycle;Signal;HPM_P1;HPM_P2
2023/12/10 00:01:32;;;;;;;145.10;78.57;;;;;;;;;;10194626;28;20077;-62
2023/12/10 00:06:31;;;;;;;28.80;18.75;;;;;;;;;;10194574;28;20092;-63
2023/12/10 00:11:29;;;;;;;17.05;12.18;;;;;;;;;;10194701;28;20511;-63
2023/12/10 00:16:29;;;;;;;44.85;30.02;;;;;;;;;;10204069;28;20072;-63
2023/12/10 00:21:28;;;;;;;28.77;20.27;;;;;;;;;;10198121;28;20077;-63
2023/12/10 00:26:26;;;;;;;64.30;41.80;;;;;;;;;;10193785;28;20073;-63
2023/12/10 00:31:25;;;;;;;53.13;31.92;;;;;;;;;;10192772;28;20108;-63
2023/12/10 00:36:25;;;;;;;20.55;15.07;;;;;;;;;;10192454;28;20073;-63
2023/12/10 00:41:23;;;;;;;104.10;54.40;;;;;;;;;;10193524;28;20526;-63
2023/12/10 00:46:21;;;;;;;92.85;50.55;;;;;;;;;;10193484;28;20073;-64
2023/12/10 00:51:20;;;;;;;53.15;32.13;;;;;;;;;;10192516;28;20074;-63
2023/12/10 00:56:20;;;;;;;20.77;14.95;;;;;;;;;;10205455;28;20069;-63
2023/12/10 01:01:18;;;;;;;18.88;12.75;;;;;;;;;;10192694;28;20069;-63
2023/12/10 01:06:17;;;;;;;20.25;14.73;;;;;;;;;;10192781;28;20515;-62
2023/12/10 01:11:15;;;;;;;17.65;13.10;;;;;;;;;;10193505;28;20077;-63
2023/12/10 01:16:16;;;;;;;31.73;22.02;;;;;;;;;;10211002;28;20088;-63
2023/12/10 01:21:15;;;;;;;9.90;8.50;;;;;;;;;;10197573;28;20066;-62
2023/12/10 01:26:14;;;;;;;13.65;10.48;;;;;;;;;;10191850;28;20444;-63
2023/12/10 01:31:12;;;;;;;11.63;9.52;;;;;;;;;;10191980;28;20486;-63
2023/12/10 01:36:23;;;;;;;13.90;10.45;;;;;;;;;;10191902;28;20073;-63
2023/12/10 01:41:21;;;;;;;13.45;10.85;;;;;;;;;;10208743;28;20140;-63
2023/12/10 01:46:21;;;;;;;18.40;13.15;;;;;;;;;;10218618;28;20068;-63
2023/12/10 01:51:19;;;;;;;52.53;31.73;;;;;;;;;;10224808;28;20088;-64
2023/12/10 01:56:21;;;;;;;38.35;26.55;;;;;;;;;;10202229;28;20084;-63
2023/12/10 02:01:19;;;;;;;24.20;17.50;;;;;;;;;;10194846;28;20077;-63
2023/12/10 02:06:18;;;;;;;16.88;10.70;;;;;;;;;;10195540;28;20073;-64
2023/12/10 02:11:16;;;;;;;17.67;14.40;;;;;;;;;;10196169;28;20495;-63
2023/12/10 02:16:16;;;;;;;13.82;11.38;;;;;;;;;;10195694;28;20098;-64
2023/12/10 02:21:16;;;;;;;12.40;11.10;;;;;;;;;;10194177;28;20068;-62
2023/12/10 02:26:16;;;;;;;10.27;8.98;;;;;;;;;;10193799;28;20068;-64
2023/12/10 02:31:14;;;;;;;16.13;12.00;;;;;;;;;;10196941;28;20448;-63
2023/12/10 02:36:13;;;;;;;12.30;10.30;;;;;;;;;;10197681;28;20081;-62
2023/12/10 02:41:11;;;;;;;14.05;10.40;;;;;;;;;;10198414;28;20084;-63
2023/12/10 02:46:11;;;;;;;12.75;9.30;;;;;;;;;;10197658;28;20073;-64
2023/12/10 02:51:09;;;;;;;14.18;11.00;;;;;;;;;;10196083;28;20511;-63
2023/12/10 02:56:08;;;;;;;11.02;9.00;;;;;;;;;;10197318;28;20050;-62
2023/12/10 03:01:07;;;;;;;14.85;11.48;;;;;;;;;;10196783;28;20085;-63
2023/12/10 03:06:07;;;;;;;11.55;9.77;;;;;;;;;;10196680;28;20514;-63
2023/12/10 03:11:06;;;;;;;15.15;10.70;;;;;;;;;;10196429;28;20073;-63
2023/12/10 03:16:04;;;;;;;15.70;11.20;;;;;;;;;;10196366;28;20074;-64
2023/12/10 03:21:03;;;;;;;12.63;9.75;;;;;;;;;;10195689;28;20093;-63
2023/12/10 03:26:02;;;;;;;13.32;10.95;;;;;;;;;;10195276;28;20077;-63
2023/12/10 03:31:01;;;;;;;13.10;10.80;;;;;;;;;;10195665;28;20518;-63
2023/12/10 03:35:59;;;;;;;18.83;13.75;;;;;;;;;;10209116;28;20100;-64
2023/12/10 03:40:58;;;;;;;14.55;10.32;;;;;;;;;;10195947;28;20081;-64
2023/12/10 03:45:57;;;;;;;17.38;12.27;;;;;;;;;;10195361;28;20460;-64
2023/12/10 03:50:56;;;;;;;15.43;12.18;;;;;;;;;;10177921;28;20093;-64
2023/12/10 03:55:54;;;;;;;15.95;12.45;;;;;;;;;;10207503;28;20084;-64
2023/12/10 04:00:52;;;;;;;18.88;14.20;;;;;;;;;;10195912;28;20545;-64
2023/12/10 04:05:52;;;;;;;15.68;12.40;;;;;;;;;;10193971;28;20081;-64
2023/12/10 04:10:51;;;;;;;17.20;13.10;;;;;;;;;;10193703;28;20073;-64
2023/12/10 04:15:49;;;;;;;15.10;12.55;;;;;;;;;;10194001;28;20526;-64
2023/12/10 04:20:49;;;;;;;16.30;12.25;;;;;;;;;;10207821;28;20046;-64
2023/12/10 04:25:49;;;;;;;21.13;13.50;;;;;;;;;;10213826;28;20077;-63
2023/12/10 04:30:48;;;;;;;19.15;13.85;;;;;;;;;;10201189;28;20483;-64
2023/12/10 04:35:46;;;;;;;17.13;14.15;;;;;;;;;;10193355;28;20546;-64
2023/12/10 04:40:45;;;;;;;20.63;14.35;;;;;;;;;;10193618;28;20078;-64
2023/12/10 04:45:44;;;;;;;22.48;17.08;;;;;;;;;;10206950;28;20080;-63
2023/12/10 04:50:43;;;;;;;21.38;15.05;;;;;;;;;;10199411;28;20084;-63
2023/12/10 04:55:41;;;;;;;26.38;20.08;;;;;;;;;;10193649;28;20339;-64
2023/12/10 05:00:39;;;;;;;20.83;15.50;;;;;;;;;;10206673;28;20066;-64
2023/12/10 05:05:39;;;;;;;21.92;16.83;;;;;;;;;;10192659;28;20495;-64
2023/12/10 05:10:38;;;;;;;20.27;15.68;;;;;;;;;;10193409;28;20085;-63
2023/12/10 05:15:36;;;;;;;20.75;16.20;;;;;;;;;;10192657;28;20072;-64
2023/12/10 05:20:34;;;;;;;20.23;14.60;;;;;;;;;;10192004;28;20077;-63
2023/12/10 05:25:34;;;;;;;20.58;14.95;;;;;;;;;;10192022;28;20080;-63
2023/12/10 05:30:32;;;;;;;19.67;14.93;;;;;;;;;;10193322;28;20081;-64
2023/12/10 05:35:34;;;;;;;21.20;14.07;;;;;;;;;;10198310;28;20073;-63
2023/12/10 05:40:34;;;;;;;19.02;15.13;;;;;;;;;;10198987;28;20115;-63
2023/12/10 05:45:32;;;;;;;18.65;14.18;;;;;;;;;;10205514;28;20455;-62
2023/12/10 05:50:30;;;;;;;18.92;14.32;;;;;;;;;;10192525;28;20092;-63
2023/12/10 05:55:29;;;;;;;29.70;21.27;;;;;;;;;;10218558;28;20080;-62
2023/12/10 06:00:29;;;;;;;24.25;18.52;;;;;;;;;;10205285;28;20511;-62
2023/12/10 06:05:27;;;;;;;25.58;16.60;;;;;;;;;;10192167;28;20073;-62
2023/12/10 06:10:26;;;;;;;19.70;15.02;;;;;;;;;;10203116;28;20096;-63
2023/12/10 06:15:24;;;;;;;19.35;15.05;;;;;;;;;;10207162;28;20061;-61
2023/12/10 06:20:24;;;;;;;21.92;16.75;;;;;;;;;;10214734;28;20080;-63
2023/12/10 06:25:22;;;;;;;24.40;15.73;;;;;;;;;;10201512;28;20069;-63
2023/12/10 06:30:20;;;;;;;24.65;17.98;;;;;;;;;;10230592;28;20096;-63
2023/12/10 06:35:19;;;;;;;24.98;18.95;;;;;;;;;;10206203;28;20073;-63
2023/12/10 06:40:18;;;;;;;22.77;17.77;;;;;;;;;;10211065;28;20510;-63
2023/12/10 06:45:17;;;;;;;25.17;19.45;;;;;;;;;;10226146;28;20080;-63
2023/12/10 06:50:15;;;;;;;24.55;18.38;;;;;;;;;;10206937;28;20423;-63
2023/12/10 06:55:14;;;;;;;23.55;18.30;;;;;;;;;;10211973;28;20080;-64
2023/12/10 07:00:14;;;;;;;34.45;25.95;;;;;;;;;;10214943;28;20484;-65
2023/12/10 07:05:13;;;;;;;33.50;24.30;;;;;;;;;;10213101;28;20062;-64
2023/12/10 07:10:11;;;;;;;47.55;27.10;;;;;;;;;;10219080;28;20510;-64
2023/12/10 07:15:10;;;;;;;41.53;30.15;;;;;;;;;;10214738;28;20077;-64
2023/12/10 07:20:10;;;;;;;42.63;30.80;;;;;;;;;;10203042;28;20072;-64
2023/12/10 07:25:09;;;;;;;23.85;19.92;;;;;;;;;;10210507;28;20061;-64
2023/12/10 07:30:08;;;;;;;41.65;27.17;;;;;;;;;;10199842;28;20073;-63
2023/12/10 07:35:06;;;;;;;24.25;18.05;;;;;;;;;;10215533;28;20095;-64
2023/12/10 07:40:06;;;;;;;59.53;38.30;;;;;;;;;;10194709;28;20096;-63
2023/12/10 07:45:05;;;;;;;26.55;18.50;;;;;;;;;;10206731;28;20069;-64
2023/12/10 07:50:03;;;;;;;21.30;15.85;;;;;;;;;;10190866;28;20046;-64
2023/12/10 07:55:02;;;;;;;25.23;18.20;;;;;;;;;;10206377;28;20081;-64
2023/12/10 08:00:05;;;;;;;18.73;15.95;;;;;;;;;;10212172;28;20068;-65
2023/12/10 08:05:09;;;;;;;28.30;20.30;;;;;;;;;;10220387;28;20061;-63
2023/12/10 08:10:08;;;;;;;42.28;26.20;;;;;;;;;;10208611;28;20486;-63
2023/12/10 08:15:08;;;;;;;51.33;35.45;;;;;;;;;;10189719;28;20087;-64
2023/12/10 08:20:07;;;;;;;24.58;18.42;;;;;;;;;;10198567;28;20049;-63
2023/12/10 08:25:06;;;;;;;31.58;21.90;;;;;;;;;;10215437;28;20076;-64
2023/12/10 08:30:05;;;;;;;30.60;25.17;;;;;;;;;;10194647;28;20069;-63
2023/12/10 08:35:05;;;;;;;35.30;30.17;;;;;;;;;;10221420;28;20080;-63
2023/12/10 08:40:04;;;;;;;25.65;18.98;;;;;;;;;;10197151;28;20081;-64
2023/12/10 08:45:03;;;;;;;32.47;22.38;;;;;;;;;;10210293;28;20073;-64
2023/12/10 08:50:02;;;;;;;27.30;19.17;;;;;;;;;;10209203;28;20073;-64
2023/12/10 08:55:02;;;;;;;22.50;18.95;;;;;;;;;;10204129;28;20065;-64
2023/12/10 09:00:00;;;;;;;28.25;22.02;;;;;;;;;;10194530;28;20061;-64
2023/12/10 09:04:59;;;;;;;29.02;23.92;;;;;;;;;;10207840;28;20081;-63
2023/12/10 09:09:59;;;;;;;26.88;22.65;;;;;;;;;;10203745;28;20077;-64
2023/12/10 09:15:11;;;;;;;25.50;21.55;;;;;;;;;;10191553;28;20100;-63
2023/12/10 09:20:10;;;;;;;30.55;22.27;;;;;;;;;;10196603;28;20080;-62
2023/12/10 09:25:08;;;;;;;34.40;28.83;;;;;;;;;;10222460;28;20527;-63
2023/12/10 09:30:07;;;;;;;19.02;16.17;;;;;;;;;;10212162;28;20064;-63
2023/12/10 09:35:08;;;;;;;27.50;20.77;;;;;;;;;;10211296;28;20066;-63
2023/12/10 09:40:07;;;;;;;26.95;20.45;;;;;;;;;;10227082;28;20091;-63
2023/12/10 09:45:06;;;;;;;30.52;21.17;;;;;;;;;;10214488;28;20074;-63
2023/12/10 09:50:05;;;;;;;42.30;28.42;;;;;;;;;;10180956;28;20080;-63
2023/12/10 09:55:05;;;;;;;22.52;19.42;;;;;;;;;;10168554;28;20057;-63
2023/12/10 10:00:05;;;;;;;27.98;17.58;;;;;;;;;;10171606;28;20050;-63
2023/12/10 10:05:04;;;;;;;24.15;16.98;;;;;;;;;;10176430;28;20045;-63
2023/12/10 10:10:05;;;;;;;26.38;19.55;;;;;;;;;;10176550;28;20047;-62
2023/12/10 10:15:06;;;;;;;23.13;15.13;;;;;;;;;;10173929;28;20430;-62
2023/12/10 10:20:05;;;;;;;24.25;14.88;;;;;;;;;;10175825;28;20056;-63
2023/12/10 10:25:03;;;;;;;19.70;15.65;;;;;;;;;;10181814;28;20038;-63
2023/12/10 10:30:03;;;;;;;18.63;14.25;;;;;;;;;;10202346;28;20571;-62
2023/12/10 10:35:04;;;;;;;21.88;14.40;;;;;;;;;;10195828;28;20326;-63
2023/12/10 10:40:03;;;;;;;20.10;15.63;;;;;;;;;;10181701;28;20484;-63
2023/12/10 10:45:02;;;;;;;50.22;35.80;;;;;;;;;;10224052;28;20073;-63
2023/12/10 10:50:02;;;;;;;20.80;15.48;;;;;;;;;;10197311;28;20081;-65
2023/12/10 10:55:21;;;;;;;25.38;19.38;;;;;;;;;;10197321;28;20108;-64
2023/12/10 11:00:36;;;;;;;24.38;15.40;;;;;;;;;;10197278;28;20080;-63
2023/12/10 11:05:35;;;;;;;23.25;16.42;;;;;;;;;;10211023;28;20077;-63
2023/12/10 11:10:35;;;;;;;33.92;22.90;;;;;;;;;;10197905;28;20066;-64
2023/12/10 11:15:34;;;;;;;33.47;22.77;;;;;;;;;;10195765;28;20074;-64
2023/12/10 11:20:36;;;;;;;28.90;22.17;;;;;;;;;;10201231;28;20088;-64
2023/12/10 11:25:36;;;;;;;31.45;21.88;;;;;;;;;;10212200;28;20430;-64
2023/12/10 11:30:34;;;;;;;32.88;24.13;;;;;;;;;;10218052;28;20072;-64
2023/12/10 11:35:33;;;;;;;34.72;24.23;;;;;;;;;;10204048;28;20085;-64
2023/12/10 11:40:31;;;;;;;39.17;26.75;;;;;;;;;;10195185;28;20096;-63
2023/12/10 11:45:31;;;;;;;28.27;21.35;;;;;;;;;;10196494;28;20502;-64
2023/12/10 11:50:31;;;;;;;29.05;22.88;;;;;;;;;;10194409;28;20069;-64
2023/12/10 11:55:30;;;;;;;30.52;20.83;;;;;;;;;;10195079;28;20084;-64
2023/12/10 12:00:28;;;;;;;35.00;22.65;;;;;;;;;;10194506;28;20081;-64
2023/12/10 12:05:28;;;;;;;30.40;22.65;;;;;;;;;;10220759;28;20080;-63
2023/12/10 12:10:36;;;;;;;34.22;24.58;;;;;;;;;;10195350;28;20077;-64
2023/12/10 12:15:34;;;;;;;43.97;27.80;;;;;;;;;;10206420;28;20499;-63
2023/12/10 12:20:35;;;;;;;32.60;23.35;;;;;;;;;;10194018;28;20076;-64
2023/12/10 12:25:37;;;;;;;31.10;23.00;;;;;;;;;;10195176;28;20510;-64
2023/12/10 12:30:36;;;;;;;29.85;21.08;;;;;;;;;;10193832;28;20069;-64
2023/12/10 12:35:36;;;;;;;33.58;23.90;;;;;;;;;;10193196;28;20073;-63
2023/12/10 12:40:35;;;;;;;44.83;31.50;;;;;;;;;;10219237;28;20092;-64
2023/12/10 12:45:33;;;;;;;42.38;27.70;;;;;;;;;;10194482;28;20114;-64
2023/12/10 12:50:32;;;;;;;51.42;33.08;;;;;;;;;;10193145;28;20073;-64
2023/12/10 12:55:32;;;;;;;36.13;26.85;;;;;;;;;;10193727;28;20475;-64
2023/12/10 13:00:30;;;;;;;36.80;27.25;;;;;;;;;;10192656;28;20049;-63
2023/12/10 13:05:28;;;;;;;30.38;24.45;;;;;;;;;;10193618;28;20424;-63
2023/12/10 13:10:27;;;;;;;32.45;24.45;;;;;;;;;;10192448;28;20480;-63
2023/12/10 13:15:27;;;;;;;38.72;30.67;;;;;;;;;;10194420;28;20081;-62
2023/12/10 13:20:25;;;;;;;75.47;56.90;;;;;;;;;;10206947;28;20125;-63
2023/12/10 13:25:23;;;;;;;48.70;35.63;;;;;;;;;;10153336;28;20148;-64
2023/12/10 13:30:22;;;;;;;45.53;37.42;;;;;;;;;;10163864;28;20056;-64
2023/12/10 13:35:21;;;;;;;48.90;37.17;;;;;;;;;;10163807;28;20052;-64
2023/12/10 13:40:20;;;;;;;49.05;33.13;;;;;;;;;;10201295;28;20144;-64
2023/12/10 13:45:18;;;;;;;34.60;27.27;;;;;;;;;;10174411;28;20288;-63
2023/12/10 13:50:17;;;;;;;26.40;21.27;;;;;;;;;;10201854;28;20489;-64
2023/12/10 13:55:16;;;;;;;31.63;22.40;;;;;;;;;;10226415;28;20061;-64
2023/12/10 14:00:15;;;;;;;36.85;26.98;;;;;;;;;;10215161;28;20065;-64
2023/12/10 14:05:14;;;;;;;34.15;23.88;;;;;;;;;;10211186;28;20076;-64
2023/12/10 14:10:12;;;;;;;36.50;24.15;;;;;;;;;;10221963;28;20065;-65
2023/12/10 14:15:12;;;;;;;42.85;28.08;;;;;;;;;;10211470;28;20602;-64
2023/12/10 14:20:11;;;;;;;50.60;30.65;;;;;;;;;;10227996;28;20065;-63
2023/12/10 14:25:11;;;;;;;35.38;27.27;;;;;;;;;;10225417;28;20069;-64
2023/12/10 14:30:09;;;;;;;33.33;27.33;;;;;;;;;;10203176;28;20538;-64
2023/12/10 14:35:09;;;;;;;33.28;23.17;;;;;;;;;;10221235;28;20065;-64
2023/12/10 14:40:10;;;;;;;26.52;21.42;;;;;;;;;;10222757;28;20073;-65
2023/12/10 14:45:10;;;;;;;30.20;22.52;;;;;;;;;;10220438;28;20093;-64
2023/12/10 14:50:10;;;;;;;26.55;19.63;;;;;;;;;;10209343;28;20069;-64
2023/12/10 14:55:09;;;;;;;28.52;21.33;;;;;;;;;;10222935;28;20517;-65
2023/12/10 15:00:08;;;;;;;33.20;23.30;;;;;;;;;;10222896;28;20087;-64
2023/12/10 15:05:07;;;;;;;41.30;32.67;;;;;;;;;;10226945;28;20084;-66
2023/12/10 15:10:07;;;;;;;29.30;22.35;;;;;;;;;;10228992;28;20064;-64
2023/12/10 15:15:06;;;;;;;34.50;25.20;;;;;;;;;;10228656;28;20471;-63
2023/12/10 15:20:05;;;;;;;34.00;24.70;;;;;;;;;;10223467;28;20076;-64
2023/12/10 15:25:04;;;;;;;29.48;22.40;;;;;;;;;;10214455;28;20076;-65
2023/12/10 15:30:05;;;;;;;44.33;30.90;;;;;;;;;;10216266;28;20522;-64
2023/12/10 15:35:03;;;;;;;32.25;24.10;;;;;;;;;;10222423;28;20073;-65
2023/12/10 15:40:02;;;;;;;34.22;26.52;;;;;;;;;;10223692;28;20085;-64
2023/12/10 15:45:00;;;;;;;33.55;26.10;;;;;;;;;;10172335;28;20490;-65
2023/12/10 15:50:00;;;;;;;36.42;28.15;;;;;;;;;;10166922;28;20616;-65
2023/12/10 15:54:59;;;;;;;40.50;29.50;;;;;;;;;;10169004;28;20059;-65
2023/12/10 15:59:57;;;;;;;48.58;39.50;;;;;;;;;;10188623;28;20136;-64
2023/12/10 16:04:56;;;;;;;43.53;31.33;;;;;;;;;;10209715;28;20073;-64
2023/12/10 16:09:55;;;;;;;34.58;27.20;;;;;;;;;;10194974;28;20069;-64
2023/12/10 16:14:54;;;;;;;31.55;23.17;;;;;;;;;;10171960;28;20057;-63
2023/12/10 16:19:52;;;;;;;40.15;28.45;;;;;;;;;;10194358;28;20140;-63
2023/12/10 16:24:51;;;;;;;44.47;31.90;;;;;;;;;;10217738;28;20370;-64
2023/12/10 16:29:50;;;;;;;52.72;37.95;;;;;;;;;;10191584;28;20068;-65
2023/12/10 16:34:49;;;;;;;35.28;25.92;;;;;;;;;;10219605;28;20077;-64
2023/12/10 16:39:48;;;;;;;46.72;35.58;;;;;;;;;;10195338;28;20489;-64
2023/12/10 16:44:47;;;;;;;29.30;23.67;;;;;;;;;;10211327;28;20065;-64
2023/12/10 16:49:46;;;;;;;37.60;29.13;;;;;;;;;;10211025;28;20861;-64
2023/12/10 16:54:47;;;;;;;31.70;24.52;;;;;;;;;;10194935;28;20188;-64
2023/12/10 16:59:46;;;;;;;42.22;32.47;;;;;;;;;;10199832;28;20164;-65
2023/12/10 17:04:44;;;;;;;30.63;23.65;;;;;;;;;;10192927;28;20563;-64
2023/12/10 17:09:44;;;;;;;49.30;32.10;;;;;;;;;;10206422;28;20612;-64
2023/12/10 17:14:43;;;;;;;43.92;31.60;;;;;;;;;;10194076;28;20155;-63
2023/12/10 17:19:41;;;;;;;30.10;21.98;;;;;;;;;;10215059;28;20096;-64
2023/12/10 17:24:40;;;;;;;71.72;33.22;;;;;;;;;;10205881;28;20116;-64
2023/12/10 17:29:40;;;;;;;27.67;21.92;;;;;;;;;;10215850;28;20091;-66
2023/12/10 17:34:38;;;;;;;40.20;28.08;;;;;;;;;;10201815;28;20136;-65
2023/12/10 17:39:37;;;;;;;39.10;29.05;;;;;;;;;;10175513;28;20575;-65
2023/12/10 17:44:36;;;;;;;80.80;48.65;;;;;;;;;;10193655;28;20175;-64
2023/12/10 17:49:52;;;;;;;32.50;24.98;;;;;;;;;;10177677;28;20602;-64
2023/12/10 17:54:51;;;;;;;46.42;31.83;;;;;;;;;;10206283;28;20065;-65
2023/12/10 17:59:50;;;;;;;44.97;34.03;;;;;;;;;;10175385;28;20145;-64
2023/12/10 18:04:48;;;;;;;53.13;39.65;;;;;;;;;;10178335;28;20148;-64
2023/12/10 18:09:48;;;;;;;34.83;27.83;;;;;;;;;;10171576;28;20128;-65
2023/12/10 18:14:47;;;;;;;33.20;23.20;;;;;;;;;;10155926;28;20128;-65
2023/12/10 18:19:45;;;;;;;32.65;25.55;;;;;;;;;;10181320;28;20120;-65
2023/12/10 18:24:44;;;;;;;29.80;22.35;;;;;;;;;;10215156;28;20065;-64
2023/12/10 18:29:43;;;;;;;50.72;35.75;;;;;;;;;;10210916;28;20133;-65
2023/12/10 18:34:42;;;;;;;30.10;23.30;;;;;;;;;;10221327;28;20136;-64
2023/12/10 18:39:42;;;;;;;35.03;28.73;;;;;;;;;;10188804;28;20152;-64
2023/12/10 18:44:40;;;;;;;27.02;19.85;;;;;;;;;;10192227;28;20061;-65
2023/12/10 18:49:40;;;;;;;69.18;38.63;;;;;;;;;;10221024;28;20065;-62
2023/12/10 18:54:39;;;;;;;47.83;30.20;;;;;;;;;;10200581;28;20074;-64
2023/12/10 18:59:38;;;;;;;28.15;22.02;;;;;;;;;;10170810;28;20060;-64
2023/12/10 19:04:37;;;;;;;29.02;22.40;;;;;;;;;;10206572;28;20569;-64
2023/12/10 19:09:36;;;;;;;35.08;28.35;;;;;;;;;;10215553;28;20107;-63
2023/12/10 19:14:35;;;;;;;31.75;25.00;;;;;;;;;;10169406;28;20974;-64
2023/12/10 19:19:33;;;;;;;31.80;26.08;;;;;;;;;;10200828;28;20132;-64
2023/12/10 19:24:32;;;;;;;30.38;23.55;;;;;;;;;;10205217;28;20157;-64
2023/12/10 19:29:31;;;;;;;35.42;26.83;;;;;;;;;;10169525;28;20041;-64
2023/12/10 19:34:30;;;;;;;230.77;128.77;;;;;;;;;;10187937;28;20132;-63
2023/12/10 19:39:28;;;;;;;118.75;66.10;;;;;;;;;;10196468;28;20081;-64
2023/12/10 19:44:26;;;;;;;112.10;61.05;;;;;;;;;;10182435;28;20136;-63
2023/12/10 19:49:27;;;;;;;111.82;57.33;;;;;;;;;;10169125;28;20059;-62
2023/12/10 19:54:25;;;;;;;146.30;74.63;;;;;;;;;;10168273;28;20050;-63
2023/12/10 19:59:26;;;;;;;182.63;87.32;;;;;;;;;;10166973;28;20080;-64
2023/12/10 20:04:24;;;;;;;76.22;40.85;;;;;;;;;;10166135;28;20063;-65
2023/12/10 20:09:24;;;;;;;200.15;93.22;;;;;;;;;;10172714;28;20082;-66
2023/12/10 20:14:23;;;;;;;109.93;62.03;;;;;;;;;;10179613;28;20441;-63
2023/12/10 20:19:21;;;;;;;82.18;45.20;;;;;;;;;;10169439;28;20060;-63
2023/12/10 20:24:19;;;;;;;150.00;77.70;;;;;;;;;;10167203;28;20128;-63
2023/12/10 20:29:33;;;;;;;159.43;75.43;;;;;;;;;;10173908;28;20128;-65
2023/12/10 20:34:31;;;;;;;156.43;71.57;;;;;;;;;;10171398;28;20156;-64
2023/12/10 20:39:32;;;;;;;157.35;81.97;;;;;;;;;;10168883;28;20065;-63
2023/12/10 20:44:31;;;;;;;75.18;42.65;;;;;;;;;;10171995;28;20037;-63
2023/12/10 20:49:30;;;;;;;171.00;79.40;;;;;;;;;;10207665;28;20072;-63
2023/12/10 20:54:29;;;;;;;184.52;78.13;;;;;;;;;;10198662;28;20126;-64
2023/12/10 20:59:27;;;;;;;80.07;43.25;;;;;;;;;;10197341;28;20137;-65
2023/12/10 21:04:26;;;;;;;113.85;53.85;;;;;;;;;;10187161;28;20144;-65
2023/12/10 21:09:26;;;;;;;105.68;58.03;;;;;;;;;;10187644;28;20128;-64
2023/12/10 21:14:24;;;;;;;86.03;49.53;;;;;;;;;;10192582;28;20488;-65
2023/12/10 21:19:24;;;;;;;59.67;39.00;;;;;;;;;;10206663;28;20538;-63
2023/12/10 21:24:22;;;;;;;100.03;58.72;;;;;;;;;;10186331;28;20152;-64
2023/12/10 21:29:22;;;;;;;40.95;27.25;;;;;;;;;;10204349;28;20065;-64
2023/12/10 21:34:20;;;;;;;65.68;39.50;;;;;;;;;;10219203;28;20069;-64
2023/12/10 21:39:19;;;;;;;30.20;22.45;;;;;;;;;;10214743;28;20132;-64
2023/12/10 21:44:17;;;;;;;29.83;22.80;;;;;;;;;;10194128;28;20473;-63
2023/12/10 21:49:17;;;;;;;44.13;30.35;;;;;;;;;;10169676;28;20053;-64
2023/12/10 21:54:16;;;;;;;30.63;23.58;;;;;;;;;;10164889;28;20518;-65
2023/12/10 21:59:14;;;;;;;32.80;25.00;;;;;;;;;;10213836;28;20069;-64
2023/12/10 22:04:12;;;;;;;41.42;29.58;;;;;;;;;;10214910;28;20065;-64
2023/12/10 22:09:12;;;;;;;36.42;26.40;;;;;;;;;;10223089;28;20443;-64
2023/12/10 22:14:10;;;;;;;58.95;38.83;;;;;;;;;;10189203;28;20152;-64
2023/12/10 22:19:09;;;;;;;36.13;26.88;;;;;;;;;;10218612;28;20072;-63
2023/12/10 22:24:07;;;;;;;59.85;38.83;;;;;;;;;;10173527;28;20406;-63
2023/12/10 22:29:07;;;;;;;32.85;23.77;;;;;;;;;;10173268;28;20034;-63
2023/12/10 22:34:05;;;;;;;31.73;24.15;;;;;;;;;;10168459;28;20044;-63
2023/12/10 22:39:04;;;;;;;35.20;24.60;;;;;;;;;;10168464;28;20537;-64
2023/12/10 22:44:02;;;;;;;35.90;24.33;;;;;;;;;;10170643;28;20051;-63
2023/12/10 22:49:03;;;;;;;29.48;22.27;;;;;;;;;;10190218;28;20116;-63
2023/12/10 22:54:01;;;;;;;31.50;21.63;;;;;;;;;;10166136;28;20046;-64
2023/12/10 22:58:59;;;;;;;32.38;23.08;;;;;;;;;;10166530;28;20708;-63
2023/12/10 23:03:58;;;;;;;31.23;23.67;;;;;;;;;;10200892;28;20128;-63
2023/12/10 23:08:57;;;;;;;37.33;24.25;;;;;;;;;;10206453;28;20684;-63
2023/12/10 23:13:56;;;;;;;31.70;23.33;;;;;;;;;;10200975;28;20078;-63
2023/12/10 23:18:54;;;;;;;29.45;21.60;;;;;;;;;;10201371;28;20066;-65
2023/12/10 23:23:53;;;;;;;33.25;23.88;;;;;;;;;;10208449;28;20093;-63
2023/12/10 23:28:53;;;;;;;55.17;29.67;;;;;;;;;;10218299;28;20064;-63
2023/12/10 23:33:51;;;;;;;32.45;24.80;;;;;;;;;;10227041;28;20068;-63
2023/12/10 23:38:50;;;;;;;29.05;23.67;;;;;;;;;;10231403;28;20569;-63
2023/12/10 23:43:48;;;;;;;30.88;21.35;;;;;;;;;;10220756;28;20075;-63
2023/12/10 23:48:48;;;;;;;30.30;21.55;;;;;;;;;;10212796;28;20503;-63
2023/12/10 23:53:47;;;;;;;28.08;20.58;;;;;;;;;;10211826;28;20061;-63
2023/12/10 23:58:45;;;;;;;31.58;20.48;;;;;;;;;;10215264;28;20076;-64
